Terminal Aerodrome Forecast
Issued by NWS Norman, OK

Home | Current Version | Previous Version | Text Only | Print | Product List | Glossary On
Versions: 1 2 3 4 5 6 7 8 9 10 11 12
000
FTUS44 KOUN 251129
TAFSPS
TAF
KSPS 251129Z 2512/2612 15005KT P6SM SCT250
     FM251700 08010KT P6SM SCT050 BKN150 PROB30 2523/2603 2SM TSRA
      BKN050CB OVC100
     FM260300 12007KT P6SM BKN050 OVC100 PROB30 2603/2606 3SM TSRA
      BKN040CB=

USA.gov is the U.S. government's official web portal to all federal, state and local government web resources and services.